sensor_id;sensor_type;location;lat;lon;timestamp;temperature;humidity
10149;DHT22;5115;50.920;6.376;2023-02-28T00:00:17;2.70;99.90
10149;DHT22;5115;50.920;6.376;2023-02-28T00:02:43;2.70;99.90
10149;DHT22;5115;50.920;6.376;2023-02-28T00:05:10;2.80;99.90
10149;DHT22;5115;50.920;6.376;2023-02-28T00:07:36;2.80;99.90
10149;DHT22;5115;50.920;6.376;2023-02-28T00:10:04;2.80;99.90
10149;DHT22;5115;50.920;6.376;2023-02-28T00:12:32;2.70;99.90
10149;DHT22;5115;50.920;6.376;2023-02-28T00:14:57;2.60;99.90
10149;DHT22;5115;50.920;6.376;2023-02-28T00:17:23;2.60;99.90
10149;DHT22;5115;50.920;6.376;2023-02-28T00:19:49;2.50;99.90
10149;DHT22;5115;50.920;6.376;2023-02-28T00:22:16;2.40;99.90
10149;DHT22;5115;50.920;6.376;2023-02-28T00:24:43;2.40;99.90
10149;DHT22;5115;50.920;6.376;2023-02-28T00:27:08;1.90;99.90
10149;DHT22;5115;50.920;6.376;2023-02-28T00:29:34;2.50;99.90
10149;DHT22;5115;50.920;6.376;2023-02-28T00:31:59;2.50;99.90
10149;DHT22;5115;50.920;6.376;2023-02-28T00:34:25;2.50;99.90
10149;DHT22;5115;50.920;6.376;2023-02-28T00:36:50;2.80;99.90
10149;DHT22;5115;50.920;6.376;2023-02-28T00:39:16;2.50;99.90
10149;DHT22;5115;50.920;6.376;2023-02-28T00:41:42;2.50;99.90
10149;DHT22;5115;50.920;6.376;2023-02-28T00:44:07;2.50;99.90
10149;DHT22;5115;50.920;6.376;2023-02-28T00:46:33;2.40;99.90
10149;DHT22;5115;50.920;6.376;2023-02-28T00:48:59;2.40;99.90
10149;DHT22;5115;50.920;6.376;2023-02-28T00:51:24;2.40;99.90
10149;DHT22;5115;50.920;6.376;2023-02-28T00:53:50;2.60;99.90
10149;DHT22;5115;50.920;6.376;2023-02-28T00:56:16;2.40;99.90
10149;DHT22;5115;50.920;6.376;2023-02-28T00:58:41;3.50;99.90
10149;DHT22;5115;50.920;6.376;2023-02-28T01:01:07;2.30;99.90
10149;DHT22;5115;50.920;6.376;2023-02-28T01:03:32;2.20;99.90
10149;DHT22;5115;50.920;6.376;2023-02-28T01:05:58;2.20;99.90
10149;DHT22;5115;50.920;6.376;2023-02-28T01:08:24;2.10;99.90
10149;DHT22;5115;50.920;6.376;2023-02-28T01:10:51;2.10;99.90
10149;DHT22;5115;50.920;6.376;2023-02-28T01:13:17;2.10;99.90
10149;DHT22;5115;50.920;6.376;2023-02-28T01:15:50;2.10;99.90
10149;DHT22;5115;50.920;6.376;2023-02-28T01:18:16;2.10;99.90
10149;DHT22;5115;50.920;6.376;2023-02-28T01:20:42;2.20;99.90
10149;DHT22;5115;50.920;6.376;2023-02-28T01:23:08;2.10;99.90
10149;DHT22;5115;50.920;6.376;2023-02-28T01:25:36;2.10;99.90
10149;DHT22;5115;50.920;6.376;2023-02-28T01:28:02;2.10;99.90
10149;DHT22;5115;50.920;6.376;2023-02-28T01:30:28;2.10;99.90
10149;DHT22;5115;50.920;6.376;2023-02-28T01:32:53;2.00;99.90
10149;DHT22;5115;50.920;6.376;2023-02-28T01:35:19;2.10;99.90
10149;DHT22;5115;50.920;6.376;2023-02-28T01:37:45;2.00;99.90
10149;DHT22;5115;50.920;6.376;2023-02-28T01:40:11;2.10;99.90
10149;DHT22;5115;50.920;6.376;2023-02-28T01:42:37;2.10;99.90
10149;DHT22;5115;50.920;6.376;2023-02-28T01:45:26;2.10;99.90
10149;DHT22;5115;50.920;6.376;2023-02-28T01:47:55;2.10;99.90
10149;DHT22;5115;50.920;6.376;2023-02-28T01:50:25;2.10;99.90
10149;DHT22;5115;50.920;6.376;2023-02-28T01:52:54;2.10;99.90
10149;DHT22;5115;50.920;6.376;2023-02-28T01:55:22;2.10;99.90
10149;DHT22;5115;50.920;6.376;2023-02-28T01:57:52;2.00;99.90
10149;DHT22;5115;50.920;6.376;2023-02-28T02:00:22;2.00;99.90
10149;DHT22;5115;50.920;6.376;2023-02-28T02:02:51;2.10;99.90
10149;DHT22;5115;50.920;6.376;2023-02-28T02:05:21;2.10;99.90
10149;DHT22;5115;50.920;6.376;2023-02-28T02:07:50;2.00;99.90
10149;DHT22;5115;50.920;6.376;2023-02-28T02:10:21;1.90;99.90
10149;DHT22;5115;50.920;6.376;2023-02-28T02:18:42;1.80;99.90
10149;DHT22;5115;50.920;6.376;2023-02-28T02:27:05;1.70;99.90
10149;DHT22;5115;50.920;6.376;2023-02-28T02:32:42;1.70;99.90
10149;DHT22;5115;50.920;6.376;2023-02-28T02:38:19;1.70;99.90
10149;DHT22;5115;50.920;6.376;2023-02-28T02:41:05;1.80;99.90
10149;DHT22;5115;50.920;6.376;2023-02-28T02:43:38;1.70;99.90
10149;DHT22;5115;50.920;6.376;2023-02-28T02:46:21;1.70;99.90
10149;DHT22;5115;50.920;6.376;2023-02-28T02:48:50;1.70;99.90
10149;DHT22;5115;50.920;6.376;2023-02-28T02:51:19;1.60;99.90
10149;DHT22;5115;50.920;6.376;2023-02-28T02:54:00;1.70;99.90
10149;DHT22;5115;50.920;6.376;2023-02-28T02:56:29;1.70;99.90
10149;DHT22;5115;50.920;6.376;2023-02-28T02:59:00;1.70;99.90
10149;DHT22;5115;50.920;6.376;2023-02-28T03:01:29;1.70;99.90
10149;DHT22;5115;50.920;6.376;2023-02-28T03:03:58;1.70;99.90
10149;DHT22;5115;50.920;6.376;2023-02-28T03:06:25;1.80;99.90
10149;DHT22;5115;50.920;6.376;2023-02-28T03:08:50;1.80;99.90
10149;DHT22;5115;50.920;6.376;2023-02-28T03:11:16;1.90;99.90
10149;DHT22;5115;50.920;6.376;2023-02-28T03:25:02;1.90;99.90
10149;DHT22;5115;50.920;6.376;2023-02-28T03:30:27;1.90;99.90
10149;DHT22;5115;50.920;6.376;2023-02-28T03:33:01;1.90;99.90
10149;DHT22;5115;50.920;6.376;2023-02-28T03:35:54;1.90;99.90
10149;DHT22;5115;50.920;6.376;2023-02-28T03:38:30;0.70;99.90
10149;DHT22;5115;50.920;6.376;2023-02-28T03:41:04;1.80;99.90
10149;DHT22;5115;50.920;6.376;2023-02-28T03:43:35;1.80;99.90
10149;DHT22;5115;50.920;6.376;2023-02-28T03:46:07;1.70;99.90
10149;DHT22;5115;50.920;6.376;2023-02-28T03:48:44;1.60;99.90
10149;DHT22;5115;50.920;6.376;2023-02-28T03:51:16;1.50;99.90
10149;DHT22;5115;50.920;6.376;2023-02-28T03:53:46;1.50;99.90
10149;DHT22;5115;50.920;6.376;2023-02-28T03:56:21;1.40;99.90
10149;DHT22;5115;50.920;6.376;2023-02-28T03:58:55;1.50;99.90
10149;DHT22;5115;50.920;6.376;2023-02-28T04:01:30;1.40;99.90
10149;DHT22;5115;50.920;6.376;2023-02-28T04:03:57;1.30;99.90
10149;DHT22;5115;50.920;6.376;2023-02-28T04:06:23;1.40;99.90
10149;DHT22;5115;50.920;6.376;2023-02-28T04:08:50;1.40;99.90
10149;DHT22;5115;50.920;6.376;2023-02-28T04:13:51;1.40;99.90
10149;DHT22;5115;50.920;6.376;2023-02-28T04:16:18;1.40;99.90
10149;DHT22;5115;50.920;6.376;2023-02-28T04:18:43;1.40;99.90
10149;DHT22;5115;50.920;6.376;2023-02-28T04:21:10;1.40;99.90
10149;DHT22;5115;50.920;6.376;2023-02-28T04:23:36;1.40;99.90
10149;DHT22;5115;50.920;6.376;2023-02-28T04:26:01;1.40;99.90
10149;DHT22;5115;50.920;6.376;2023-02-28T04:28:27;1.40;99.90
10149;DHT22;5115;50.920;6.376;2023-02-28T04:33:22;1.40;99.90
10149;DHT22;5115;50.920;6.376;2023-02-28T04:35:48;1.40;99.90
10149;DHT22;5115;50.920;6.376;2023-02-28T04:38:13;1.40;99.90
10149;DHT22;5115;50.920;6.376;2023-02-28T04:40:39;1.40;99.90
10149;DHT22;5115;50.920;6.376;2023-02-28T04:43:04;1.40;99.90
10149;DHT22;5115;50.920;6.376;2023-02-28T04:45:30;1.40;99.90
10149;DHT22;5115;50.920;6.376;2023-02-28T04:47:57;1.20;99.90
10149;DHT22;5115;50.920;6.376;2023-02-28T04:50:23;1.10;99.90
10149;DHT22;5115;50.920;6.376;2023-02-28T04:52:48;1.00;99.90
10149;DHT22;5115;50.920;6.376;2023-02-28T04:55:14;0.80;99.90
10149;DHT22;5115;50.920;6.376;2023-02-28T04:57:39;0.80;99.90
10149;DHT22;5115;50.920;6.376;2023-02-28T05:00:08;0.80;99.90
10149;DHT22;5115;50.920;6.376;2023-02-28T05:02:37;0.80;99.90
10149;DHT22;5115;50.920;6.376;2023-02-28T05:05:03;0.70;99.90
10149;DHT22;5115;50.920;6.376;2023-02-28T05:07:29;0.70;99.90
10149;DHT22;5115;50.920;6.376;2023-02-28T05:09:54;0.70;99.90
10149;DHT22;5115;50.920;6.376;2023-02-28T05:12:20;0.70;99.90
10149;DHT22;5115;50.920;6.376;2023-02-28T05:14:45;0.70;99.90
10149;DHT22;5115;50.920;6.376;2023-02-28T05:17:11;0.70;99.90
10149;DHT22;5115;50.920;6.376;2023-02-28T05:19:36;0.70;99.90
10149;DHT22;5115;50.920;6.376;2023-02-28T05:22:02;0.70;99.90
10149;DHT22;5115;50.920;6.376;2023-02-28T05:24:27;0.70;99.90
10149;DHT22;5115;50.920;6.376;2023-02-28T05:26:54;0.60;99.90
10149;DHT22;5115;50.920;6.376;2023-02-28T05:29:20;0.60;99.90
10149;DHT22;5115;50.920;6.376;2023-02-28T05:31:46;0.60;99.90
10149;DHT22;5115;50.920;6.376;2023-02-28T05:34:12;0.60;99.90
10149;DHT22;5115;50.920;6.376;2023-02-28T05:36:38;0.60;99.90
10149;DHT22;5115;50.920;6.376;2023-02-28T05:39:05;0.60;99.90
10149;DHT22;5115;50.920;6.376;2023-02-28T05:41:31;0.60;99.90
10149;DHT22;5115;50.920;6.376;2023-02-28T05:43:57;0.60;99.90
10149;DHT22;5115;50.920;6.376;2023-02-28T05:46:24;0.60;99.90
10149;DHT22;5115;50.920;6.376;2023-02-28T05:48:50;0.60;99.90
10149;DHT22;5115;50.920;6.376;2023-02-28T05:51:16;0.60;99.90
10149;DHT22;5115;50.920;6.376;2023-02-28T05:53:42;0.60;99.90
10149;DHT22;5115;50.920;6.376;2023-02-28T05:56:08;0.50;99.90
10149;DHT22;5115;50.920;6.376;2023-02-28T05:58:33;0.60;99.90
10149;DHT22;5115;50.920;6.376;2023-02-28T06:01:01;0.50;99.90
10149;DHT22;5115;50.920;6.376;2023-02-28T06:03:43;0.40;99.90
10149;DHT22;5115;50.920;6.376;2023-02-28T06:06:09;0.50;99.90
10149;DHT22;5115;50.920;6.376;2023-02-28T06:08:35;0.50;99.90
10149;DHT22;5115;50.920;6.376;2023-02-28T06:11:04;0.60;99.90
10149;DHT22;5115;50.920;6.376;2023-02-28T06:13:30;0.70;99.90
10149;DHT22;5115;50.920;6.376;2023-02-28T06:15:55;0.60;99.90
10149;DHT22;5115;50.920;6.376;2023-02-28T06:18:21;0.60;99.90
10149;DHT22;5115;50.920;6.376;2023-02-28T06:20:53;0.50;99.90
10149;DHT22;5115;50.920;6.376;2023-02-28T06:23:20;0.60;99.90
10149;DHT22;5115;50.920;6.376;2023-02-28T06:25:46;0.60;99.90
10149;DHT22;5115;50.920;6.376;2023-02-28T06:28:11;0.50;99.90
10149;DHT22;5115;50.920;6.376;2023-02-28T06:30:37;0.50;99.90
10149;DHT22;5115;50.920;6.376;2023-02-28T06:33:03;0.50;99.90
10149;DHT22;5115;50.920;6.376;2023-02-28T06:35:28;0.50;99.90
10149;DHT22;5115;50.920;6.376;2023-02-28T06:37:54;0.50;99.90
10149;DHT22;5115;50.920;6.376;2023-02-28T06:40:20;0.60;99.90
10149;DHT22;5115;50.920;6.376;2023-02-28T06:42:46;0.60;99.90
10149;DHT22;5115;50.920;6.376;2023-02-28T06:45:11;0.60;99.90
10149;DHT22;5115;50.920;6.376;2023-02-28T06:47:39;0.70;99.90
10149;DHT22;5115;50.920;6.376;2023-02-28T06:50:05;0.90;99.90
10149;DHT22;5115;50.920;6.376;2023-02-28T06:52:31;1.20;99.90
10149;DHT22;5115;50.920;6.376;2023-02-28T06:54:57;1.50;99.90
10149;DHT22;5115;50.920;6.376;2023-02-28T06:57:32;2.10;99.90
10149;DHT22;5115;50.920;6.376;2023-02-28T06:59:59;2.60;99.90
10149;DHT22;5115;50.920;6.376;2023-02-28T07:02:25;3.10;99.90
10149;DHT22;5115;50.920;6.376;2023-02-28T07:04:51;3.50;99.90
10149;DHT22;5115;50.920;6.376;2023-02-28T07:07:17;4.00;99.90
10149;DHT22;5115;50.920;6.376;2023-02-28T07:09:42;4.40;99.90
10149;DHT22;5115;50.920;6.376;2023-02-28T07:12:08;5.10;99.90
10149;DHT22;5115;50.920;6.376;2023-02-28T07:14:33;5.70;99.90
10149;DHT22;5115;50.920;6.376;2023-02-28T07:16:59;6.20;99.90
10149;DHT22;5115;50.920;6.376;2023-02-28T07:19:24;6.30;99.90
10149;DHT22;5115;50.920;6.376;2023-02-28T07:21:50;6.80;99.90
10149;DHT22;5115;50.920;6.376;2023-02-28T07:24:15;7.20;99.90
10149;DHT22;5115;50.920;6.376;2023-02-28T07:26:43;7.50;99.90
10149;DHT22;5115;50.920;6.376;2023-02-28T07:29:08;8.10;99.90
10149;DHT22;5115;50.920;6.376;2023-02-28T07:31:34;8.60;99.90
10149;DHT22;5115;50.920;6.376;2023-02-28T07:33:59;9.10;99.90
10149;DHT22;5115;50.920;6.376;2023-02-28T07:36:25;9.20;99.90
10149;DHT22;5115;50.920;6.376;2023-02-28T07:38:51;9.60;99.50
10149;DHT22;5115;50.920;6.376;2023-02-28T07:41:18;9.90;98.80
10149;DHT22;5115;50.920;6.376;2023-02-28T07:43:44;10.40;97.50
10149;DHT22;5115;50.920;6.376;2023-02-28T07:46:11;10.60;97.10
10149;DHT22;5115;50.920;6.376;2023-02-28T07:48:37;11.00;96.80
10149;DHT22;5115;50.920;6.376;2023-02-28T07:51:03;11.50;97.00
10149;DHT22;5115;50.920;6.376;2023-02-28T07:53:29;12.00;96.20
10149;DHT22;5115;50.920;6.376;2023-02-28T07:56:00;12.40;95.20
10149;DHT22;5115;50.920;6.376;2023-02-28T07:58:27;12.50;94.30
10149;DHT22;5115;50.920;6.376;2023-02-28T08:00:53;12.70;94.30
10149;DHT22;5115;50.920;6.376;2023-02-28T08:03:20;12.60;94.10
10149;DHT22;5115;50.920;6.376;2023-02-28T08:05:46;13.00;94.00
10149;DHT22;5115;50.920;6.376;2023-02-28T08:08:13;13.70;93.30
10149;DHT22;5115;50.920;6.376;2023-02-28T08:10:39;13.30;92.30
10149;DHT22;5115;50.920;6.376;2023-02-28T08:13:04;13.70;91.90
10149;DHT22;5115;50.920;6.376;2023-02-28T08:15:30;13.70;91.10
10149;DHT22;5115;50.920;6.376;2023-02-28T08:17:56;13.30;90.40
10149;DHT22;5115;50.920;6.376;2023-02-28T08:20:23;13.20;90.50
10149;DHT22;5115;50.920;6.376;2023-02-28T08:22:49;13.80;90.10
10149;DHT22;5115;50.920;6.376;2023-02-28T08:25:14;13.60;89.20
10149;DHT22;5115;50.920;6.376;2023-02-28T08:27:40;13.80;88.90
10149;DHT22;5115;50.920;6.376;2023-02-28T08:30:06;14.10;87.00
10149;DHT22;5115;50.920;6.376;2023-02-28T08:32:33;14.10;86.30
10149;DHT22;5115;50.920;6.376;2023-02-28T08:34:59;14.40;86.60
10149;DHT22;5115;50.920;6.376;2023-02-28T08:37:25;13.60;83.80
10149;DHT22;5115;50.920;6.376;2023-02-28T08:39:50;13.00;85.00
10149;DHT22;5115;50.920;6.376;2023-02-28T08:42:16;12.90;85.30
10149;DHT22;5115;50.920;6.376;2023-02-28T08:44:41;13.10;84.20
10149;DHT22;5115;50.920;6.376;2023-02-28T08:47:07;13.10;85.30
10149;DHT22;5115;50.920;6.376;2023-02-28T08:49:33;13.10;83.40
10149;DHT22;5115;50.920;6.376;2023-02-28T08:51:58;13.20;84.40
10149;DHT22;5115;50.920;6.376;2023-02-28T08:54:24;14.50;85.30
10149;DHT22;5115;50.920;6.376;2023-02-28T08:56:50;13.20;81.80
10149;DHT22;5115;50.920;6.376;2023-02-28T08:59:16;13.80;81.50
10149;DHT22;5115;50.920;6.376;2023-02-28T09:01:41;12.80;79.90
10149;DHT22;5115;50.920;6.376;2023-02-28T09:04:08;13.30;81.40
10149;DHT22;5115;50.920;6.376;2023-02-28T09:06:35;14.00;81.10
10149;DHT22;5115;50.920;6.376;2023-02-28T09:09:01;13.20;79.50
10149;DHT22;5115;50.920;6.376;2023-02-28T09:11:28;14.00;79.20
10149;DHT22;5115;50.920;6.376;2023-02-28T09:13:54;13.70;78.20
10149;DHT22;5115;50.920;6.376;2023-02-28T09:16:21;12.80;77.90
10149;DHT22;5115;50.920;6.376;2023-02-28T09:18:47;11.60;78.60
10149;DHT22;5115;50.920;6.376;2023-02-28T09:21:14;12.20;78.50
10149;DHT22;5115;50.920;6.376;2023-02-28T09:23:42;13.10;78.80
10149;DHT22;5115;50.920;6.376;2023-02-28T09:26:11;13.20;78.40
10149;DHT22;5115;50.920;6.376;2023-02-28T09:28:38;13.70;75.90
10149;DHT22;5115;50.920;6.376;2023-02-28T09:31:03;13.80;75.50
10149;DHT22;5115;50.920;6.376;2023-02-28T09:33:30;14.20;75.80
10149;DHT22;5115;50.920;6.376;2023-02-28T09:36:00;13.70;75.70
10149;DHT22;5115;50.920;6.376;2023-02-28T09:38:26;14.20;74.80
10149;DHT22;5115;50.920;6.376;2023-02-28T09:41:08;14.20;74.50
10149;DHT22;5115;50.920;6.376;2023-02-28T09:43:38;12.40;74.50
10149;DHT22;5115;50.920;6.376;2023-02-28T09:48:51;10.40;74.90
10149;DHT22;5115;50.920;6.376;2023-02-28T09:51:47;11.10;75.00
10149;DHT22;5115;50.920;6.376;2023-02-28T09:54:18;11.30;74.80
10149;DHT22;5115;50.920;6.376;2023-02-28T09:56:51;11.10;74.60
10149;DHT22;5115;50.920;6.376;2023-02-28T09:59:25;11.60;73.90
10149;DHT22;5115;50.920;6.376;2023-02-28T10:02:03;10.60;72.30
10149;DHT22;5115;50.920;6.376;2023-02-28T10:10:27;12.00;74.10
10149;DHT22;5115;50.920;6.376;2023-02-28T10:12:55;10.90;71.90
10149;DHT22;5115;50.920;6.376;2023-02-28T10:15:24;10.90;72.80
10149;DHT22;5115;50.920;6.376;2023-02-28T10:17:54;11.40;74.70
10149;DHT22;5115;50.920;6.376;2023-02-28T10:20:23;11.20;73.30
10149;DHT22;5115;50.920;6.376;2023-02-28T10:23:19;9.80;72.90
10149;DHT22;5115;50.920;6.376;2023-02-28T10:25:53;8.90;74.80
10149;DHT22;5115;50.920;6.376;2023-02-28T10:28:19;9.40;75.30
10149;DHT22;5115;50.920;6.376;2023-02-28T10:30:49;9.60;77.00
10149;DHT22;5115;50.920;6.376;2023-02-28T10:33:22;9.10;74.50
10149;DHT22;5115;50.920;6.376;2023-02-28T10:35:49;8.70;75.80
10149;DHT22;5115;50.920;6.376;2023-02-28T10:38:21;9.00;78.10
10149;DHT22;5115;50.920;6.376;2023-02-28T10:40:47;9.20;76.70
10149;DHT22;5115;50.920;6.376;2023-02-28T10:45:38;8.90;78.60
10149;DHT22;5115;50.920;6.376;2023-02-28T10:48:29;8.70;79.50
10149;DHT22;5115;50.920;6.376;2023-02-28T10:50:56;8.10;79.70
10149;DHT22;5115;50.920;6.376;2023-02-28T10:58:29;8.40;80.00
10149;DHT22;5115;50.920;6.376;2023-02-28T11:00:55;8.50;80.10
10149;DHT22;5115;50.920;6.376;2023-02-28T11:03:30;8.40;80.30
10149;DHT22;5115;50.920;6.376;2023-02-28T11:05:56;7.90;81.50
10149;DHT22;5115;50.920;6.376;2023-02-28T11:08:22;8.60;80.80
10149;DHT22;5115;50.920;6.376;2023-02-28T11:10:58;8.80;81.00
10149;DHT22;5115;50.920;6.376;2023-02-28T11:13:42;9.10;81.40
10149;DHT22;5115;50.920;6.376;2023-02-28T11:16:10;9.20;78.80
10149;DHT22;5115;50.920;6.376;2023-02-28T11:18:50;8.80;78.90
10149;DHT22;5115;50.920;6.376;2023-02-28T11:21:32;9.20;79.60
10149;DHT22;5115;50.920;6.376;2023-02-28T11:24:21;9.30;79.00
10149;DHT22;5115;50.920;6.376;2023-02-28T11:26:48;8.60;78.10
10149;DHT22;5115;50.920;6.376;2023-02-28T11:32:19;8.90;83.50
10149;DHT22;5115;50.920;6.376;2023-02-28T11:35:02;8.80;79.40
10149;DHT22;5115;50.920;6.376;2023-02-28T11:37:30;8.80;79.80
10149;DHT22;5115;50.920;6.376;2023-02-28T11:39:56;8.70;79.80
10149;DHT22;5115;50.920;6.376;2023-02-28T11:45:40;9.40;79.50
10149;DHT22;5115;50.920;6.376;2023-02-28T11:48:22;9.20;80.50
10149;DHT22;5115;50.920;6.376;2023-02-28T11:50:58;9.00;79.70
10149;DHT22;5115;50.920;6.376;2023-02-28T11:56:39;8.60;81.90
10149;DHT22;5115;50.920;6.376;2023-02-28T11:59:35;8.50;83.20
10149;DHT22;5115;50.920;6.376;2023-02-28T12:08:01;8.00;81.30
10149;DHT22;5115;50.920;6.376;2023-02-28T12:10:30;8.00;82.30
10149;DHT22;5115;50.920;6.376;2023-02-28T12:13:21;8.20;85.20
10149;DHT22;5115;50.920;6.376;2023-02-28T12:15:59;8.20;83.90
10149;DHT22;5115;50.920;6.376;2023-02-28T12:27:11;7.00;82.50
10149;DHT22;5115;50.920;6.376;2023-02-28T12:29:48;6.90;84.20
10149;DHT22;5115;50.920;6.376;2023-02-28T12:32:22;7.30;86.60
10149;DHT22;5115;50.920;6.376;2023-02-28T12:41:15;7.10;85.10
10149;DHT22;5115;50.920;6.376;2023-02-28T12:43:44;7.30;91.10
10149;DHT22;5115;50.920;6.376;2023-02-28T12:46:29;7.40;92.20
10149;DHT22;5115;50.920;6.376;2023-02-28T12:48:56;7.30;90.10
10149;DHT22;5115;50.920;6.376;2023-02-28T12:51:24;7.50;89.20
10149;DHT22;5115;50.920;6.376;2023-02-28T12:57:06;7.70;91.60
10149;DHT22;5115;50.920;6.376;2023-02-28T12:59:39;7.80;90.90
10149;DHT22;5115;50.920;6.376;2023-02-28T13:10:12;6.80;90.20
10149;DHT22;5115;50.920;6.376;2023-02-28T13:12:48;6.90;89.30
10149;DHT22;5115;50.920;6.376;2023-02-28T13:15:26;6.70;90.10
10149;DHT22;5115;50.920;6.376;2023-02-28T13:17:56;6.60;91.00
10149;DHT22;5115;50.920;6.376;2023-02-28T13:20:29;6.60;92.20
10149;DHT22;5115;50.920;6.376;2023-02-28T13:22:55;6.60;92.40
10149;DHT22;5115;50.920;6.376;2023-02-28T13:27:47;6.50;91.30
10149;DHT22;5115;50.920;6.376;2023-02-28T13:38:56;6.60;90.30
10149;DHT22;5115;50.920;6.376;2023-02-28T13:44:14;6.50;90.60
10149;DHT22;5115;50.920;6.376;2023-02-28T13:55:09;6.60;90.50
10149;DHT22;5115;50.920;6.376;2023-02-28T14:01:05;6.50;90.30
10149;DHT22;5115;50.920;6.376;2023-02-28T14:06:38;6.40;92.50
10149;DHT22;5115;50.920;6.376;2023-02-28T14:11:39;6.20;91.40
10149;DHT22;5115;50.920;6.376;2023-02-28T14:14:07;6.10;92.40
10149;DHT22;5115;50.920;6.376;2023-02-28T14:16:39;6.20;92.50
10149;DHT22;5115;50.920;6.376;2023-02-28T14:19:11;6.30;92.30
10149;DHT22;5115;50.920;6.376;2023-02-28T14:21:43;6.50;93.10
10149;DHT22;5115;50.920;6.376;2023-02-28T14:27:17;6.30;92.60
10149;DHT22;5115;50.920;6.376;2023-02-28T14:32:28;6.30;92.40
10149;DHT22;5115;50.920;6.376;2023-02-28T14:35:17;6.40;93.10
10149;DHT22;5115;50.920;6.376;2023-02-28T14:37:45;6.50;91.90
10149;DHT22;5115;50.920;6.376;2023-02-28T14:40:22;6.40;92.40
10149;DHT22;5115;50.920;6.376;2023-02-28T14:43:02;6.40;92.00
10149;DHT22;5115;50.920;6.376;2023-02-28T14:45:32;6.30;90.60
10149;DHT22;5115;50.920;6.376;2023-02-28T14:48:00;6.40;91.80
10149;DHT22;5115;50.920;6.376;2023-02-28T14:50:38;6.30;91.80
10149;DHT22;5115;50.920;6.376;2023-02-28T14:53:03;6.50;92.10
10149;DHT22;5115;50.920;6.376;2023-02-28T14:55:35;6.50;92.00
10149;DHT22;5115;50.920;6.376;2023-02-28T14:58:03;6.50;90.40
10149;DHT22;5115;50.920;6.376;2023-02-28T15:00:33;6.50;91.20
10149;DHT22;5115;50.920;6.376;2023-02-28T15:03:01;6.60;91.00
10149;DHT22;5115;50.920;6.376;2023-02-28T15:05:30;6.40;90.30
10149;DHT22;5115;50.920;6.376;2023-02-28T15:08:09;6.60;90.40
10149;DHT22;5115;50.920;6.376;2023-02-28T15:10:36;6.60;90.50
10149;DHT22;5115;50.920;6.376;2023-02-28T15:13:04;6.70;90.20
10149;DHT22;5115;50.920;6.376;2023-02-28T15:16:06;6.60;90.20
10149;DHT22;5115;50.920;6.376;2023-02-28T15:18:53;6.30;90.20
10149;DHT22;5115;50.920;6.376;2023-02-28T15:21:23;6.30;90.30
10149;DHT22;5115;50.920;6.376;2023-02-28T15:23:53;6.30;91.20
10149;DHT22;5115;50.920;6.376;2023-02-28T15:26:23;6.30;90.70
10149;DHT22;5115;50.920;6.376;2023-02-28T15:28:55;6.50;91.00
10149;DHT22;5115;50.920;6.376;2023-02-28T15:31:27;6.60;91.80
10149;DHT22;5115;50.920;6.376;2023-02-28T15:33:57;6.60;91.90
10149;DHT22;5115;50.920;6.376;2023-02-28T15:36:29;6.70;92.20
10149;DHT22;5115;50.920;6.376;2023-02-28T15:38:55;6.60;92.10
10149;DHT22;5115;50.920;6.376;2023-02-28T15:41:26;6.60;91.90
10149;DHT22;5115;50.920;6.376;2023-02-28T15:44:15;6.60;92.10
10149;DHT22;5115;50.920;6.376;2023-02-28T15:47:05;6.60;91.70
10149;DHT22;5115;50.920;6.376;2023-02-28T15:49:40;6.60;91.20
10149;DHT22;5115;50.920;6.376;2023-02-28T15:52:14;6.60;91.20
10149;DHT22;5115;50.920;6.376;2023-02-28T15:54:40;6.50;91.20
10149;DHT22;5115;50.920;6.376;2023-02-28T15:57:13;6.40;91.30
10149;DHT22;5115;50.920;6.376;2023-02-28T15:59:50;6.40;91.90
10149;DHT22;5115;50.920;6.376;2023-02-28T16:02:20;6.40;92.50
10149;DHT22;5115;50.920;6.376;2023-02-28T16:05:20;6.30;92.40
10149;DHT22;5115;50.920;6.376;2023-02-28T16:07:54;6.40;92.20
10149;DHT22;5115;50.920;6.376;2023-02-28T16:10:21;6.50;91.90
10149;DHT22;5115;50.920;6.376;2023-02-28T16:12:50;6.40;91.60
10149;DHT22;5115;50.920;6.376;2023-02-28T16:15:21;6.30;92.00
10149;DHT22;5115;50.920;6.376;2023-02-28T16:17:47;6.40;92.00
10149;DHT22;5115;50.920;6.376;2023-02-28T16:20:22;6.40;91.60
10149;DHT22;5115;50.920;6.376;2023-02-28T16:22:47;6.40;91.50
10149;DHT22;5115;50.920;6.376;2023-02-28T16:25:15;6.40;91.50
10149;DHT22;5115;50.920;6.376;2023-02-28T16:27:42;6.30;92.20
10149;DHT22;5115;50.920;6.376;2023-02-28T16:30:21;6.20;91.30
10149;DHT22;5115;50.920;6.376;2023-02-28T16:32:47;6.30;92.20
10149;DHT22;5115;50.920;6.376;2023-02-28T16:35:13;6.40;92.00
10149;DHT22;5115;50.920;6.376;2023-02-28T16:37:40;6.40;91.90
10149;DHT22;5115;50.920;6.376;2023-02-28T16:40:07;6.20;91.20
10149;DHT22;5115;50.920;6.376;2023-02-28T16:42:34;6.30;91.90
10149;DHT22;5115;50.920;6.376;2023-02-28T16:44:59;6.30;92.60
10149;DHT22;5115;50.920;6.376;2023-02-28T16:47:25;6.30;92.40
10149;DHT22;5115;50.920;6.376;2023-02-28T16:49:55;6.10;91.70
10149;DHT22;5115;50.920;6.376;2023-02-28T16:52:21;6.30;92.50
10149;DHT22;5115;50.920;6.376;2023-02-28T16:54:46;6.30;93.10
10149;DHT22;5115;50.920;6.376;2023-02-28T16:57:19;6.30;92.60
10149;DHT22;5115;50.920;6.376;2023-02-28T16:59:46;6.30;93.10
10149;DHT22;5115;50.920;6.376;2023-02-28T17:02:14;6.10;93.90
10149;DHT22;5115;50.920;6.376;2023-02-28T17:04:40;6.10;94.40
10149;DHT22;5115;50.920;6.376;2023-02-28T17:07:10;6.00;95.00
10149;DHT22;5115;50.920;6.376;2023-02-28T17:09:37;5.90;95.50
10149;DHT22;5115;50.920;6.376;2023-02-28T17:12:03;6.40;96.40
10149;DHT22;5115;50.920;6.376;2023-02-28T17:14:28;5.80;96.40
10149;DHT22;5115;50.920;6.376;2023-02-28T17:16:54;5.70;96.80
10149;DHT22;5115;50.920;6.376;2023-02-28T17:19:19;5.70;97.50
10149;DHT22;5115;50.920;6.376;2023-02-28T17:21:45;5.60;97.90
10149;DHT22;5115;50.920;6.376;2023-02-28T17:24:11;5.50;98.30
10149;DHT22;5115;50.920;6.376;2023-02-28T17:26:41;5.40;98.80
10149;DHT22;5115;50.920;6.376;2023-02-28T17:29:18;5.40;99.10
10149;DHT22;5115;50.920;6.376;2023-02-28T17:31:44;5.20;99.70
10149;DHT22;5115;50.920;6.376;2023-02-28T17:34:10;5.10;99.90
10149;DHT22;5115;50.920;6.376;2023-02-28T17:36:36;5.00;99.90
10149;DHT22;5115;50.920;6.376;2023-02-28T17:39:04;4.90;99.90
10149;DHT22;5115;50.920;6.376;2023-02-28T17:41:30;5.00;99.90
10149;DHT22;5115;50.920;6.376;2023-02-28T17:43:57;5.00;99.90
10149;DHT22;5115;50.920;6.376;2023-02-28T17:46:23;4.90;99.90
10149;DHT22;5115;50.920;6.376;2023-02-28T17:48:51;4.80;99.90
10149;DHT22;5115;50.920;6.376;2023-02-28T17:51:18;4.70;99.90
10149;DHT22;5115;50.920;6.376;2023-02-28T17:53:44;4.70;99.90
10149;DHT22;5115;50.920;6.376;2023-02-28T17:56:20;4.50;99.90
10149;DHT22;5115;50.920;6.376;2023-02-28T17:58:46;4.50;99.90
10149;DHT22;5115;50.920;6.376;2023-02-28T18:01:12;4.50;99.90
10149;DHT22;5115;50.920;6.376;2023-02-28T18:03:38;4.40;99.90
10149;DHT22;5115;50.920;6.376;2023-02-28T18:06:05;4.40;99.90
10149;DHT22;5115;50.920;6.376;2023-02-28T18:08:32;4.30;99.90
10149;DHT22;5115;50.920;6.376;2023-02-28T18:11:00;4.30;99.90
10149;DHT22;5115;50.920;6.376;2023-02-28T18:13:28;4.30;99.90
10149;DHT22;5115;50.920;6.376;2023-02-28T18:15:54;4.20;99.90
10149;DHT22;5115;50.920;6.376;2023-02-28T18:18:20;4.10;99.90
10149;DHT22;5115;50.920;6.376;2023-02-28T18:20:45;4.10;99.90
10149;DHT22;5115;50.920;6.376;2023-02-28T18:23:13;4.10;99.90